Time;durP1;ratioP1;P1;durP2;ratioP2;P2;SDS_P1;SDS_P2;PMS_P1;PMS_P2;Temp;Humidity;BMP_temperature;BMP_pressure;BME280_temperature;BME280_humidity;BME280_pressure;Samples;Min_cycle;Max_cycle;Signal;HPM_P1;HPM_P2
2021/11/15 00:00:48;;;;;;;73.33;47.60;;;;;;;;;;5065663;28;25005;-61
2021/11/15 00:03:14;;;;;;;73.93;49.33;;;;;;;;;;5071788;28;24442;-60
2021/11/15 00:05:39;;;;;;;75.68;48.88;;;;;;;;;;5067656;28;24552;-61
2021/11/15 00:08:04;;;;;;;61.20;44.67;;;;;;;;;;5066917;28;24501;-60
2021/11/15 00:10:30;;;;;;;69.90;46.77;;;;;;;;;;5074794;28;25263;-61
2021/11/15 00:12:55;;;;;;;73.83;48.37;;;;;;;;;;5050624;28;24419;-60
2021/11/15 00:15:20;;;;;;;67.07;43.93;;;;;;;;;;5068551;28;25020;-61
2021/11/15 00:17:46;;;;;;;76.87;50.03;;;;;;;;;;5063976;28;24427;-61
2021/11/15 00:20:12;;;;;;;78.63;51.20;;;;;;;;;;5078056;28;24445;-61
2021/11/15 00:22:37;;;;;;;72.30;46.67;;;;;;;;;;5081519;28;24421;-61
2021/11/15 00:25:04;;;;;;;64.27;45.00;;;;;;;;;;5068935;28;24418;-61
2021/11/15 00:27:29;;;;;;;75.80;50.47;;;;;;;;;;5062003;28;24547;-62
2021/11/15 00:29:57;;;;;;;78.13;51.10;;;;;;;;;;5057356;28;25046;-61
2021/11/15 00:32:22;;;;;;;75.93;50.27;;;;;;;;;;5063161;28;25230;-61
2021/11/15 00:34:47;;;;;;;78.10;50.83;;;;;;;;;;5073478;28;24407;-60
2021/11/15 00:37:13;;;;;;;84.13;52.35;;;;;;;;;;5067946;28;24407;-60
2021/11/15 00:39:38;;;;;;;77.57;49.75;;;;;;;;;;5068280;28;24525;-61
2021/11/15 00:42:03;;;;;;;75.28;49.55;;;;;;;;;;5068713;28;24411;-60
2021/11/15 00:44:28;;;;;;;80.13;50.60;;;;;;;;;;5065170;28;24987;-61
2021/11/15 00:46:53;;;;;;;74.57;47.53;;;;;;;;;;5061764;28;24418;-60
2021/11/15 00:49:19;;;;;;;74.53;48.10;;;;;;;;;;5056142;28;24465;-60
2021/11/15 00:51:44;;;;;;;83.80;51.58;;;;;;;;;;5062941;28;24560;-61
2021/11/15 00:54:09;;;;;;;85.20;54.10;;;;;;;;;;5070849;28;24507;-61
2021/11/15 00:56:34;;;;;;;78.70;49.03;;;;;;;;;;5063583;28;24952;-61
2021/11/15 00:58:59;;;;;;;77.17;49.30;;;;;;;;;;5071248;28;24437;-61
2021/11/15 01:01:24;;;;;;;74.30;47.80;;;;;;;;;;5059352;28;24414;-61
2021/11/15 01:03:51;;;;;;;69.27;47.33;;;;;;;;;;5059196;28;24411;-61
2021/11/15 01:06:16;;;;;;;71.70;48.50;;;;;;;;;;5057125;28;24415;-61
2021/11/15 01:08:42;;;;;;;72.13;47.27;;;;;;;;;;5061790;28;24418;-61
2021/11/15 01:11:07;;;;;;;74.50;48.10;;;;;;;;;;5063204;28;24414;-60
2021/11/15 01:13:32;;;;;;;72.93;49.03;;;;;;;;;;5082964;28;24471;-61
2021/11/15 01:15:58;;;;;;;62.90;43.60;;;;;;;;;;5063940;28;24442;-61
2021/11/15 01:18:23;;;;;;;73.40;46.20;;;;;;;;;;5059674;28;24426;-61
2021/11/15 01:20:48;;;;;;;61.80;43.07;;;;;;;;;;5059454;28;24951;-61
2021/11/15 01:23:14;;;;;;;69.40;46.60;;;;;;;;;;5060682;28;24445;-62
2021/11/15 01:25:40;;;;;;;66.03;44.40;;;;;;;;;;5062617;28;24456;-60
2021/11/15 01:28:06;;;;;;;72.13;47.90;;;;;;;;;;5067452;28;25014;-60
2021/11/15 01:30:31;;;;;;;72.73;48.43;;;;;;;;;;5073692;28;24421;-60
2021/11/15 01:32:57;;;;;;;71.43;47.03;;;;;;;;;;5056515;28;24438;-60
2021/11/15 01:35:22;;;;;;;69.25;45.60;;;;;;;;;;5076897;28;25055;-60
2021/11/15 01:37:48;;;;;;;65.10;44.58;;;;;;;;;;5076898;28;25006;-63
2021/11/15 01:40:14;;;;;;;72.97;49.13;;;;;;;;;;5071504;28;24418;-64
2021/11/15 01:42:40;;;;;;;68.65;46.03;;;;;;;;;;5063953;28;24415;-60
2021/11/15 01:45:06;;;;;;;60.90;42.10;;;;;;;;;;5065820;28;24468;-61
2021/11/15 01:47:31;;;;;;;64.97;43.53;;;;;;;;;;5060632;28;24833;-61
2021/11/15 01:49:57;;;;;;;63.83;43.57;;;;;;;;;;5060475;28;24878;-61
2021/11/15 01:52:22;;;;;;;71.38;48.30;;;;;;;;;;5055927;28;24468;-61
2021/11/15 01:54:48;;;;;;;67.37;45.23;;;;;;;;;;5064436;28;24415;-61
2021/11/15 01:57:14;;;;;;;70.10;46.33;;;;;;;;;;5058554;28;24414;-61
2021/11/15 01:59:39;;;;;;;61.85;42.92;;;;;;;;;;5047775;28;25349;-60
2021/11/15 02:02:05;;;;;;;59.23;42.50;;;;;;;;;;5056368;28;24557;-60
2021/11/15 02:04:30;;;;;;;67.50;44.60;;;;;;;;;;5065901;28;24415;-60
2021/11/15 02:06:55;;;;;;;64.73;44.27;;;;;;;;;;5062594;28;24407;-61
2021/11/15 02:09:20;;;;;;;65.93;44.13;;;;;;;;;;5065225;28;24423;-60
2021/11/15 02:11:45;;;;;;;62.03;42.05;;;;;;;;;;5061602;28;24467;-61
2021/11/15 02:14:11;;;;;;;59.47;41.40;;;;;;;;;;5068889;28;24472;-60
2021/11/15 02:16:36;;;;;;;63.53;42.10;;;;;;;;;;5053002;28;24790;-61
2021/11/15 02:19:02;;;;;;;57.50;40.07;;;;;;;;;;5055832;28;24483;-61
2021/11/15 02:21:27;;;;;;;58.53;41.80;;;;;;;;;;5077445;28;24970;-61
2021/11/15 02:23:52;;;;;;;57.77;41.83;;;;;;;;;;5067238;28;24807;-61
2021/11/15 02:26:19;;;;;;;57.33;41.40;;;;;;;;;;5070405;28;25051;-61
2021/11/15 02:28:45;;;;;;;58.88;39.88;;;;;;;;;;5064162;28;24979;-60
2021/11/15 02:31:12;;;;;;;62.63;42.20;;;;;;;;;;5080125;28;24441;-60
2021/11/15 02:33:37;;;;;;;57.90;39.50;;;;;;;;;;5074080;28;24466;-60
2021/11/15 02:36:04;;;;;;;58.83;41.47;;;;;;;;;;5064242;28;24411;-61
2021/11/15 02:38:29;;;;;;;57.10;40.65;;;;;;;;;;5070848;28;24511;-61
2021/11/15 02:40:55;;;;;;;60.60;42.30;;;;;;;;;;5071086;28;24441;-61
2021/11/15 02:43:20;;;;;;;57.03;40.23;;;;;;;;;;5077238;28;24733;-61
2021/11/15 02:45:46;;;;;;;56.63;38.83;;;;;;;;;;5073733;28;24418;-61
2021/11/15 02:48:11;;;;;;;50.60;37.20;;;;;;;;;;5070164;28;24460;-62
2021/11/15 02:50:36;;;;;;;57.60;41.77;;;;;;;;;;5067973;28;24430;-61
2021/11/15 02:53:04;;;;;;;60.17;42.30;;;;;;;;;;5060678;28;24423;-60
2021/11/15 02:55:29;;;;;;;61.20;42.45;;;;;;;;;;5058920;28;24844;-61
2021/11/15 02:57:55;;;;;;;52.83;39.00;;;;;;;;;;5061078;28;25056;-60
2021/11/15 03:00:26;;;;;;;60.50;41.80;;;;;;;;;;5058796;28;24407;-61
2021/11/15 03:02:56;;;;;;;53.63;41.20;;;;;;;;;;5066225;28;24522;-60
2021/11/15 03:05:25;;;;;;;57.60;41.97;;;;;;;;;;5059243;28;24857;-61
2021/11/15 03:07:51;;;;;;;52.83;37.55;;;;;;;;;;5069042;28;24518;-61
2021/11/15 03:10:16;;;;;;;52.73;40.20;;;;;;;;;;5069007;28;24522;-60
2021/11/15 03:12:41;;;;;;;52.78;37.55;;;;;;;;;;5063562;28;24449;-60
2021/11/15 03:15:06;;;;;;;49.67;36.50;;;;;;;;;;5054754;28;24472;-61
2021/11/15 03:17:32;;;;;;;52.83;38.55;;;;;;;;;;5066765;28;24983;-61
2021/11/15 03:19:57;;;;;;;48.40;35.37;;;;;;;;;;5076645;28;24414;-61
2021/11/15 03:22:22;;;;;;;53.45;38.58;;;;;;;;;;5065530;28;24475;-61
2021/11/15 03:24:48;;;;;;;48.67;35.47;;;;;;;;;;5071172;28;24425;-61
2021/11/15 03:27:13;;;;;;;52.70;38.60;;;;;;;;;;5060007;28;24503;-61
2021/11/15 03:29:38;;;;;;;50.27;35.90;;;;;;;;;;5081433;28;24429;-60
2021/11/15 03:32:04;;;;;;;53.90;38.63;;;;;;;;;;5080785;28;24414;-61
2021/11/15 03:34:29;;;;;;;46.00;33.00;;;;;;;;;;5062129;28;24423;-61
2021/11/15 03:36:54;;;;;;;46.40;36.27;;;;;;;;;;5060635;28;24506;-61
2021/11/15 03:39:19;;;;;;;47.72;34.83;;;;;;;;;;5058395;28;24508;-61
2021/11/15 03:41:45;;;;;;;44.33;34.40;;;;;;;;;;5083802;28;24509;-62
2021/11/15 03:44:10;;;;;;;50.03;37.33;;;;;;;;;;5073050;28;24469;-61
2021/11/15 03:46:36;;;;;;;50.53;37.23;;;;;;;;;;5071372;28;25283;-61
2021/11/15 03:49:02;;;;;;;46.60;35.33;;;;;;;;;;5057843;28;24422;-61
2021/11/15 03:51:27;;;;;;;45.40;35.10;;;;;;;;;;5057726;28;24828;-61
2021/11/15 03:53:53;;;;;;;43.60;33.17;;;;;;;;;;5053887;28;24464;-62
2021/11/15 03:56:23;;;;;;;44.20;34.40;;;;;;;;;;5066898;28;24537;-61
2021/11/15 03:58:48;;;;;;;44.60;32.20;;;;;;;;;;5052058;28;24424;-61
2021/11/15 04:01:13;;;;;;;42.50;33.50;;;;;;;;;;5076628;28;24418;-61
2021/11/15 04:03:42;;;;;;;40.22;30.10;;;;;;;;;;5057732;28;24445;-61
2021/11/15 04:06:11;;;;;;;44.67;33.30;;;;;;;;;;5070616;28;24541;-61
2021/11/15 04:08:37;;;;;;;45.10;32.80;;;;;;;;;;5060260;28;24414;-61
2021/11/15 04:11:03;;;;;;;43.65;32.92;;;;;;;;;;5062122;28;25212;-61
2021/11/15 04:13:36;;;;;;;42.53;32.20;;;;;;;;;;5083175;28;24521;-60
2021/11/15 04:16:03;;;;;;;41.42;30.65;;;;;;;;;;5064891;28;25381;-60
2021/11/15 04:18:30;;;;;;;39.67;31.20;;;;;;;;;;5057346;28;24548;-60
2021/11/15 04:20:55;;;;;;;37.95;30.27;;;;;;;;;;5061478;28;24566;-61
2021/11/15 04:23:21;;;;;;;44.40;33.33;;;;;;;;;;5059206;28;24935;-60
2021/11/15 04:25:46;;;;;;;36.87;29.27;;;;;;;;;;5057069;28;24461;-61
2021/11/15 04:28:11;;;;;;;40.60;31.25;;;;;;;;;;5060445;28;25104;-63
2021/11/15 04:30:36;;;;;;;42.70;31.42;;;;;;;;;;5061236;28;24999;-62
2021/11/15 04:33:03;;;;;;;39.10;31.10;;;;;;;;;;5069302;28;24507;-63
2021/11/15 04:35:28;;;;;;;36.33;29.07;;;;;;;;;;5066217;28;24781;-63
2021/11/15 04:37:54;;;;;;;39.27;31.50;;;;;;;;;;5076941;28;24921;-64
2021/11/15 04:40:19;;;;;;;39.43;30.47;;;;;;;;;;5061342;28;24910;-63
2021/11/15 04:42:44;;;;;;;42.53;32.47;;;;;;;;;;5064630;28;24411;-63
2021/11/15 04:45:10;;;;;;;38.77;28.50;;;;;;;;;;5054787;28;24410;-63
2021/11/15 04:47:35;;;;;;;36.70;28.33;;;;;;;;;;5059755;28;24445;-63
2021/11/15 04:50:01;;;;;;;40.20;29.63;;;;;;;;;;5066175;28;24403;-63
2021/11/15 04:52:27;;;;;;;43.60;32.47;;;;;;;;;;5060532;28;24568;-62
2021/11/15 04:54:52;;;;;;;41.05;30.75;;;;;;;;;;5060750;28;24494;-63
2021/11/15 04:57:18;;;;;;;42.40;30.93;;;;;;;;;;5053589;28;25115;-62
2021/11/15 04:59:44;;;;;;;38.43;29.20;;;;;;;;;;5056220;28;24566;-61
2021/11/15 05:02:09;;;;;;;45.00;33.80;;;;;;;;;;5060741;28;25044;-62
2021/11/15 05:04:34;;;;;;;44.65;32.05;;;;;;;;;;5060396;28;24645;-61
2021/11/15 05:07:00;;;;;;;41.38;33.13;;;;;;;;;;5061676;28;24990;-62
2021/11/15 05:09:25;;;;;;;39.60;30.63;;;;;;;;;;5059302;28;24407;-62
2021/11/15 05:11:50;;;;;;;43.67;31.30;;;;;;;;;;5059894;28;24425;-61
2021/11/15 05:14:15;;;;;;;42.30;32.63;;;;;;;;;;5065157;28;24964;-61
2021/11/15 05:16:40;;;;;;;38.55;29.90;;;;;;;;;;5073953;28;24761;-62
2021/11/15 05:19:05;;;;;;;43.03;33.20;;;;;;;;;;5073490;28;24525;-62
2021/11/15 05:21:31;;;;;;;44.90;32.90;;;;;;;;;;5056992;28;24407;-62
2021/11/15 05:23:56;;;;;;;46.33;36.23;;;;;;;;;;5056449;28;24688;-61
2021/11/15 05:26:22;;;;;;;42.13;34.23;;;;;;;;;;5066712;28;24402;-61
2021/11/15 05:28:47;;;;;;;40.03;32.47;;;;;;;;;;5052365;28;24514;-63
2021/11/15 05:31:12;;;;;;;44.77;33.70;;;;;;;;;;5058278;28;24573;-62
2021/11/15 05:33:37;;;;;;;41.03;32.70;;;;;;;;;;5065558;28;24439;-62
2021/11/15 05:36:03;;;;;;;42.60;34.67;;;;;;;;;;5060502;28;24423;-62
2021/11/15 05:38:28;;;;;;;45.77;36.77;;;;;;;;;;5068596;28;24995;-62
2021/11/15 05:40:53;;;;;;;44.20;35.03;;;;;;;;;;5073402;28;24962;-61
2021/11/15 05:43:18;;;;;;;44.27;34.80;;;;;;;;;;5064742;28;24411;-62
2021/11/15 05:45:43;;;;;;;48.67;35.37;;;;;;;;;;5060495;28;24422;-62
2021/11/15 05:48:09;;;;;;;47.23;36.23;;;;;;;;;;5061037;28;24419;-62
2021/11/15 05:50:34;;;;;;;48.07;34.00;;;;;;;;;;5057220;28;24465;-62
2021/11/15 05:53:00;;;;;;;50.37;33.20;;;;;;;;;;5055726;28;25050;-62
2021/11/15 05:55:25;;;;;;;49.55;36.60;;;;;;;;;;5062005;28;24419;-62
2021/11/15 05:57:51;;;;;;;45.83;33.50;;;;;;;;;;5059087;28;24429;-62
2021/11/15 06:00:18;;;;;;;46.08;35.05;;;;;;;;;;5053266;28;24509;-62
2021/11/15 06:02:43;;;;;;;43.40;31.80;;;;;;;;;;5061566;28;24507;-63
2021/11/15 06:05:09;;;;;;;45.13;34.70;;;;;;;;;;5057777;28;24964;-62
2021/11/15 06:07:35;;;;;;;44.80;33.17;;;;;;;;;;5059274;28;24954;-62
2021/11/15 06:10:00;;;;;;;47.57;35.83;;;;;;;;;;5048975;28;24417;-62
2021/11/15 06:12:25;;;;;;;38.80;31.92;;;;;;;;;;5057932;28;24430;-64
2021/11/15 06:14:51;;;;;;;47.53;35.53;;;;;;;;;;5057563;28;24418;-62
2021/11/15 06:17:16;;;;;;;41.57;32.90;;;;;;;;;;5052267;28;24454;-64
2021/11/15 06:19:41;;;;;;;47.30;35.97;;;;;;;;;;5055299;28;24422;-64
2021/11/15 06:22:07;;;;;;;44.45;33.53;;;;;;;;;;5066644;28;24772;-64
2021/11/15 06:24:32;;;;;;;44.13;34.63;;;;;;;;;;5049428;28;24423;-64
2021/11/15 06:26:57;;;;;;;42.70;31.20;;;;;;;;;;5071897;28;25037;-62
2021/11/15 06:29:22;;;;;;;46.20;32.33;;;;;;;;;;5060755;28;24406;-63
2021/11/15 06:31:47;;;;;;;46.83;32.80;;;;;;;;;;5059341;28;24757;-62
2021/11/15 06:34:13;;;;;;;44.40;32.23;;;;;;;;;;5055713;28;24526;-62
2021/11/15 06:36:38;;;;;;;41.87;32.00;;;;;;;;;;5056439;28;24982;-63
2021/11/15 06:39:04;;;;;;;42.67;31.20;;;;;;;;;;5058993;28;24441;-62
2021/11/15 06:41:29;;;;;;;44.92;34.58;;;;;;;;;;5061520;28;24414;-62
2021/11/15 06:43:54;;;;;;;44.87;33.80;;;;;;;;;;5059738;28;24490;-62
2021/11/15 06:46:19;;;;;;;42.80;32.35;;;;;;;;;;5060125;28;24414;-62
2021/11/15 06:48:45;;;;;;;42.73;32.77;;;;;;;;;;5054722;28;24580;-63
2021/11/15 06:51:11;;;;;;;44.93;33.53;;;;;;;;;;5054050;28;24983;-62
2021/11/15 06:53:37;;;;;;;49.13;37.08;;;;;;;;;;5055227;28;24446;-63
2021/11/15 06:56:03;;;;;;;41.50;32.05;;;;;;;;;;5054748;28;25087;-62
2021/11/15 06:58:28;;;;;;;40.72;30.17;;;;;;;;;;5060376;28;24422;-62
2021/11/15 07:00:54;;;;;;;40.77;31.83;;;;;;;;;;5048338;28;24402;-62
2021/11/15 07:03:19;;;;;;;44.13;33.33;;;;;;;;;;5045201;28;24455;-63
2021/11/15 07:05:45;;;;;;;41.57;32.83;;;;;;;;;;5053035;28;24419;-63
2021/11/15 07:08:10;;;;;;;40.33;32.63;;;;;;;;;;5058949;28;25033;-62
2021/11/15 07:10:37;;;;;;;44.13;32.30;;;;;;;;;;5059895;28;24510;-63
2021/11/15 07:13:04;;;;;;;44.42;35.97;;;;;;;;;;5051525;28;24410;-63
2021/11/15 07:15:29;;;;;;;43.60;33.90;;;;;;;;;;5057647;28;25376;-64
2021/11/15 07:17:55;;;;;;;42.60;33.83;;;;;;;;;;5046069;28;24423;-63
2021/11/15 07:20:20;;;;;;;41.43;32.37;;;;;;;;;;5055358;28;24418;-64
2021/11/15 07:22:48;;;;;;;40.53;32.53;;;;;;;;;;5064010;28;25021;-63
2021/11/15 07:25:13;;;;;;;43.33;31.95;;;;;;;;;;5063211;28;24995;-62
2021/11/15 07:27:39;;;;;;;43.40;32.27;;;;;;;;;;5066132;28;24428;-62
2021/11/15 07:30:05;;;;;;;40.20;30.77;;;;;;;;;;5060076;28;24395;-62
2021/11/15 07:32:30;;;;;;;41.53;32.00;;;;;;;;;;5070556;28;24529;-63
2021/11/15 07:34:56;;;;;;;44.67;34.03;;;;;;;;;;5051441;28;24514;-61
2021/11/15 07:37:21;;;;;;;45.00;34.60;;;;;;;;;;5052232;28;24403;-62
2021/11/15 07:39:46;;;;;;;46.83;34.63;;;;;;;;;;5039500;28;24462;-62
2021/11/15 07:42:12;;;;;;;41.23;31.83;;;;;;;;;;5049377;28;24455;-62
2021/11/15 07:44:38;;;;;;;39.30;30.83;;;;;;;;;;5060126;28;24968;-63
2021/11/15 07:47:03;;;;;;;45.87;33.27;;;;;;;;;;5056798;28;24438;-62
2021/11/15 07:49:28;;;;;;;37.50;30.50;;;;;;;;;;5059468;28;25020;-62
2021/11/15 07:51:53;;;;;;;40.72;30.55;;;;;;;;;;5056947;28;25049;-61
2021/11/15 07:54:18;;;;;;;42.10;31.77;;;;;;;;;;5061984;28;24494;-62
2021/11/15 07:56:44;;;;;;;39.15;31.95;;;;;;;;;;5060399;28;24718;-62
2021/11/15 07:59:09;;;;;;;42.28;32.88;;;;;;;;;;5059322;28;24430;-63
2021/11/15 08:01:34;;;;;;;44.63;33.07;;;;;;;;;;5039179;28;24434;-63
2021/11/15 08:03:59;;;;;;;40.67;30.00;;;;;;;;;;5067533;28;24955;-63
2021/11/15 08:06:24;;;;;;;38.33;29.10;;;;;;;;;;5061142;28;24963;-63
2021/11/15 08:08:50;;;;;;;45.53;32.25;;;;;;;;;;5063646;28;24940;-63
2021/11/15 08:11:15;;;;;;;44.17;31.67;;;;;;;;;;5061664;28;24514;-63
2021/11/15 08:13:40;;;;;;;41.60;32.53;;;;;;;;;;5056970;28;24426;-62
2021/11/15 08:16:05;;;;;;;45.13;34.23;;;;;;;;;;5057329;28;24805;-62
2021/11/15 08:18:31;;;;;;;43.50;31.17;;;;;;;;;;5062948;28;24544;-62
2021/11/15 08:20:56;;;;;;;37.33;30.73;;;;;;;;;;5061492;28;24872;-63
2021/11/15 08:23:21;;;;;;;37.20;28.70;;;;;;;;;;5061766;28;24374;-63
2021/11/15 08:25:49;;;;;;;40.90;31.87;;;;;;;;;;5059637;28;24418;-63
2021/11/15 08:28:14;;;;;;;39.13;29.02;;;;;;;;;;5059148;28;24407;-63
2021/11/15 08:30:39;;;;;;;41.07;30.07;;;;;;;;;;5060224;28;24426;-64
2021/11/15 08:33:05;;;;;;;40.87;30.23;;;;;;;;;;5060772;28;24431;-63
2021/11/15 08:35:30;;;;;;;41.35;31.10;;;;;;;;;;5062993;28;24413;-63
2021/11/15 08:38:15;;;;;;;41.03;30.27;;;;;;;;;;5061110;28;24417;-63
2021/11/15 08:40:45;;;;;;;40.97;29.92;;;;;;;;;;5058474;28;24960;-63
2021/11/15 08:43:10;;;;;;;41.20;31.50;;;;;;;;;;5059306;28;24415;-64
2021/11/15 08:45:36;;;;;;;41.90;31.43;;;;;;;;;;5061120;28;24410;-63
2021/11/15 08:48:02;;;;;;;43.53;31.70;;;;;;;;;;5061234;28;24437;-61
2021/11/15 08:50:28;;;;;;;41.45;31.20;;;;;;;;;;5062295;28;25177;-63
2021/11/15 08:52:53;;;;;;;39.50;30.37;;;;;;;;;;5062150;28;24505;-63
2021/11/15 08:55:18;;;;;;;42.72;32.08;;;;;;;;;;5057532;28;24391;-63
2021/11/15 08:57:43;;;;;;;43.20;31.80;;;;;;;;;;5060740;28;24486;-64
2021/11/15 09:00:09;;;;;;;41.57;33.27;;;;;;;;;;5060426;28;24502;-64
2021/11/15 09:02:34;;;;;;;36.10;28.93;;;;;;;;;;5062041;28;24511;-63
2021/11/15 09:04:59;;;;;;;39.85;30.83;;;;;;;;;;5060723;28;24412;-63
2021/11/15 09:07:24;;;;;;;37.80;30.27;;;;;;;;;;5058442;28;24395;-61
2021/11/15 09:09:50;;;;;;;38.07;28.87;;;;;;;;;;5060032;28;24399;-61
2021/11/15 09:12:16;;;;;;;40.30;30.40;;;;;;;;;;5060138;28;24405;-61
2021/11/15 09:14:41;;;;;;;40.22;30.70;;;;;;;;;;5060677;28;24398;-61
2021/11/15 09:17:06;;;;;;;35.60;27.98;;;;;;;;;;5056729;28;24405;-62
2021/11/15 09:19:32;;;;;;;37.13;28.43;;;;;;;;;;5058351;28;24415;-62
2021/11/15 09:21:57;;;;;;;43.53;31.17;;;;;;;;;;5058675;28;25297;-62
2021/11/15 09:24:23;;;;;;;39.47;30.13;;;;;;;;;;5061574;28;24411;-62
2021/11/15 09:26:49;;;;;;;38.17;29.25;;;;;;;;;;5060830;28;24440;-62
2021/11/15 09:29:14;;;;;;;42.60;31.43;;;;;;;;;;5047339;28;24853;-62
2021/11/15 09:31:40;;;;;;;33.50;26.03;;;;;;;;;;5056752;28;24426;-62
2021/11/15 09:34:05;;;;;;;40.83;30.20;;;;;;;;;;5056106;28;24446;-61
2021/11/15 09:36:30;;;;;;;39.22;29.52;;;;;;;;;;5062228;28;24394;-63
2021/11/15 09:38:57;;;;;;;36.23;28.53;;;;;;;;;;5060015;28;24948;-62
2021/11/15 09:41:22;;;;;;;36.88;28.75;;;;;;;;;;5061934;28;24395;-62
2021/11/15 09:43:48;;;;;;;42.27;31.80;;;;;;;;;;5059847;28;24507;-62
2021/11/15 09:46:15;;;;;;;33.60;25.73;;;;;;;;;;5056378;28;24540;-62
2021/11/15 09:48:42;;;;;;;36.30;29.25;;;;;;;;;;5056126;28;24391;-62
2021/11/15 09:51:07;;;;;;;37.50;28.67;;;;;;;;;;5040033;28;24691;-63
2021/11/15 09:53:33;;;;;;;34.80;27.47;;;;;;;;;;5024403;28;25187;-63
2021/11/15 09:55:58;;;;;;;34.90;27.05;;;;;;;;;;5040743;28;24399;-63
2021/11/15 09:58:24;;;;;;;35.88;27.30;;;;;;;;;;5026266;28;24468;-63
2021/11/15 10:00:49;;;;;;;37.30;28.97;;;;;;;;;;5057695;28;24464;-64
2021/11/15 10:03:15;;;;;;;36.92;27.92;;;;;;;;;;5056632;28;24439;-63
2021/11/15 10:05:41;;;;;;;36.70;28.60;;;;;;;;;;5062154;28;24399;-61
2021/11/15 10:08:09;;;;;;;37.33;29.05;;;;;;;;;;5060389;28;24395;-62
2021/11/15 10:10:47;;;;;;;35.95;26.58;;;;;;;;;;5061225;28;24415;-62
2021/11/15 10:13:15;;;;;;;38.03;28.23;;;;;;;;;;5058231;28;24452;-62
2021/11/15 10:15:51;;;;;;;35.28;28.20;;;;;;;;;;5055996;28;25207;-62
2021/11/15 10:18:40;;;;;;;34.75;26.30;;;;;;;;;;5058046;28;24484;-63
2021/11/15 10:21:07;;;;;;;33.35;25.73;;;;;;;;;;5050838;28;24538;-63
2021/11/15 10:23:34;;;;;;;32.67;26.85;;;;;;;;;;5047679;28;24402;-62
2021/11/15 10:26:01;;;;;;;33.00;27.58;;;;;;;;;;5043960;28;24395;-62
2021/11/15 10:28:27;;;;;;;32.00;27.38;;;;;;;;;;5053571;28;24426;-62
2021/11/15 10:30:53;;;;;;;33.10;27.97;;;;;;;;;;5061293;28;24449;-62
2021/11/15 10:33:18;;;;;;;28.97;25.67;;;;;;;;;;5063447;28;24435;-62
2021/11/15 10:35:47;;;;;;;29.98;24.65;;;;;;;;;;5065380;28;24382;-62
2021/11/15 10:38:14;;;;;;;29.60;24.50;;;;;;;;;;5063399;28;24488;-62
2021/11/15 10:40:39;;;;;;;30.42;25.45;;;;;;;;;;5061274;28;24406;-62
2021/11/15 10:43:08;;;;;;;27.50;22.93;;;;;;;;;;5059694;28;24407;-62
2021/11/15 10:45:36;;;;;;;29.48;24.98;;;;;;;;;;5061431;28;24413;-62
2021/11/15 10:48:02;;;;;;;29.17;24.42;;;;;;;;;;5061762;28;24387;-62
2021/11/15 10:50:44;;;;;;;28.25;23.10;;;;;;;;;;5064823;28;24493;-64
2021/11/15 10:53:11;;;;;;;27.50;23.55;;;;;;;;;;5063189;28;25282;-65
2021/11/15 10:55:46;;;;;;;28.75;22.73;;;;;;;;;;5068609;28;24453;-65
2021/11/15 10:58:18;;;;;;;28.75;22.77;;;;;;;;;;5081695;28;24418;-63
2021/11/15 11:00:52;;;;;;;26.95;22.00;;;;;;;;;;5079845;28;24936;-63
2021/11/15 11:03:19;;;;;;;26.07;22.53;;;;;;;;;;5068557;28;24438;-63
2021/11/15 11:05:46;;;;;;;27.55;21.65;;;;;;;;;;5064617;28;24402;-63
2021/11/15 11:08:16;;;;;;;26.63;22.90;;;;;;;;;;5062979;28;24470;-63
2021/11/15 11:10:49;;;;;;;30.07;24.70;;;;;;;;;;5064784;28;24398;-63
2021/11/15 11:13:15;;;;;;;27.88;24.13;;;;;;;;;;5058859;28;24524;-63
2021/11/15 11:15:46;;;;;;;26.38;22.27;;;;;;;;;;5058244;28;24559;-62
2021/11/15 11:18:20;;;;;;;26.90;22.83;;;;;;;;;;5061889;28;25059;-62
2021/11/15 11:23:45;;;;;;;25.25;20.75;;;;;;;;;;5062671;28;24452;-63
2021/11/15 11:26:21;;;;;;;26.38;21.60;;;;;;;;;;5059115;28;24975;-62
2021/11/15 11:28:47;;;;;;;27.42;22.08;;;;;;;;;;5060445;28;24821;-62
2021/11/15 11:31:14;;;;;;;27.80;23.85;;;;;;;;;;5064254;28;24486;-63
2021/11/15 11:33:40;;;;;;;26.90;22.75;;;;;;;;;;5062826;28;24437;-62
2021/11/15 11:36:06;;;;;;;26.90;23.73;;;;;;;;;;5060774;28;24532;-63
2021/11/15 11:38:31;;;;;;;25.10;21.00;;;;;;;;;;5058265;28;24722;-63
2021/11/15 11:40:57;;;;;;;24.00;20.70;;;;;;;;;;5060504;28;24398;-63
2021/11/15 11:43:22;;;;;;;27.15;23.13;;;;;;;;;;5064173;28;24418;-63
2021/11/15 11:45:47;;;;;;;25.27;21.83;;;;;;;;;;5064396;28;24411;-63
2021/11/15 11:48:14;;;;;;;21.57;18.90;;;;;;;;;;5060717;28;24391;-63
2021/11/15 11:50:42;;;;;;;24.35;19.70;;;;;;;;;;5074821;28;24406;-65
2021/11/15 11:53:08;;;;;;;27.83;22.33;;;;;;;;;;5075213;28;24949;-64
2021/11/15 11:55:35;;;;;;;27.50;22.75;;;;;;;;;;5062194;28;24411;-63
2021/11/15 11:58:19;;;;;;;26.85;22.90;;;;;;;;;;5062062;28;24758;-64
2021/11/15 12:00:48;;;;;;;26.75;23.27;;;;;;;;;;5063970;28;24433;-67
2021/11/15 12:03:14;;;;;;;25.92;21.75;;;;;;;;;;5059827;28;24756;-64
2021/11/15 12:05:39;;;;;;;28.42;23.70;;;;;;;;;;5058409;28;24502;-64
2021/11/15 12:08:08;;;;;;;27.00;22.73;;;;;;;;;;5064129;28;24448;-64
2021/11/15 12:10:42;;;;;;;29.33;23.98;;;;;;;;;;5045942;28;24407;-64
2021/11/15 12:13:08;;;;;;;29.40;23.87;;;;;;;;;;5062045;28;24398;-64
2021/11/15 12:15:33;;;;;;;26.50;22.73;;;;;;;;;;5059125;28;24439;-64
2021/11/15 12:18:05;;;;;;;27.80;23.30;;;;;;;;;;5058058;28;24438;-64
2021/11/15 12:20:31;;;;;;;30.05;24.15;;;;;;;;;;5061741;28;24822;-63
2021/11/15 12:22:58;;;;;;;27.40;23.80;;;;;;;;;;5059537;28;24454;-64
2021/11/15 12:25:25;;;;;;;25.02;20.60;;;;;;;;;;5063467;28;24417;-63
2021/11/15 12:27:52;;;;;;;21.50;18.98;;;;;;;;;;5063322;28;24414;-64
2021/11/15 12:30:23;;;;;;;25.00;22.30;;;;;;;;;;5059874;28;24478;-64
2021/11/15 12:33:16;;;;;;;24.15;20.25;;;;;;;;;;5059437;28;24411;-64
2021/11/15 12:35:59;;;;;;;26.10;22.00;;;;;;;;;;5059217;28;24968;-64
2021/11/15 12:38:44;;;;;;;26.20;21.70;;;;;;;;;;5063424;28;24933;-64
2021/11/15 12:41:09;;;;;;;27.02;21.13;;;;;;;;;;5061315;28;24586;-64
2021/11/15 12:43:36;;;;;;;24.45;20.02;;;;;;;;;;5061139;28;22985;-64
2021/11/15 12:46:08;;;;;;;24.10;19.70;;;;;;;;;;5056540;28;24417;-64
2021/11/15 12:48:35;;;;;;;23.23;20.73;;;;;;;;;;5059204;28;24448;-64
2021/11/15 12:51:08;;;;;;;26.58;23.27;;;;;;;;;;5082194;28;24413;-64
2021/11/15 12:53:34;;;;;;;25.25;21.50;;;;;;;;;;5083159;28;24436;-65
2021/11/15 12:55:59;;;;;;;24.80;22.10;;;;;;;;;;5079419;28;24832;-64
2021/11/15 12:58:24;;;;;;;24.80;22.10;;;;;;;;;;5058813;28;24407;-64
2021/11/15 13:00:49;;;;;;;27.23;23.00;;;;;;;;;;5059281;28;24796;-63
2021/11/15 13:03:15;;;;;;;24.10;21.30;;;;;;;;;;5059040;28;24470;-63
2021/11/15 13:05:41;;;;;;;28.90;24.70;;;;;;;;;;5060725;28;24387;-63
2021/11/15 13:08:07;;;;;;;25.63;22.75;;;;;;;;;;5060395;28;24472;-63
2021/11/15 13:10:34;;;;;;;25.70;21.87;;;;;;;;;;5062247;28;24476;-63
2021/11/15 13:13:01;;;;;;;25.88;21.20;;;;;;;;;;5060698;28;24401;-63
2021/11/15 13:15:26;;;;;;;26.67;23.15;;;;;;;;;;5059120;28;24383;-63
2021/11/15 13:17:52;;;;;;;26.35;21.77;;;;;;;;;;5059965;28;24420;-63
2021/11/15 13:20:20;;;;;;;28.00;23.30;;;;;;;;;;5061995;28;24401;-64
2021/11/15 13:22:55;;;;;;;29.73;24.17;;;;;;;;;;5054131;28;24483;-64
2021/11/15 13:25:21;;;;;;;28.10;23.30;;;;;;;;;;5046920;28;24391;-62
2021/11/15 13:27:47;;;;;;;27.40;21.70;;;;;;;;;;5078186;28;24460;-64
2021/11/15 13:30:15;;;;;;;29.42;24.10;;;;;;;;;;5062645;28;24402;-63
2021/11/15 13:32:42;;;;;;;25.70;22.05;;;;;;;;;;5060531;28;24430;-63
2021/11/15 13:35:07;;;;;;;29.20;24.42;;;;;;;;;;5056789;28;24518;-63
2021/11/15 13:37:33;;;;;;;27.60;23.80;;;;;;;;;;5058394;28;24557;-63
2021/11/15 13:40:00;;;;;;;28.97;24.10;;;;;;;;;;5058608;28;24846;-65
2021/11/15 13:42:25;;;;;;;28.05;23.75;;;;;;;;;;5062337;28;24425;-64
2021/11/15 13:44:51;;;;;;;29.98;24.50;;;;;;;;;;5062409;28;24403;-64
2021/11/15 13:47:19;;;;;;;23.87;20.80;;;;;;;;;;5058792;28;24437;-63
2021/11/15 13:49:45;;;;;;;28.40;24.95;;;;;;;;;;5067020;28;24409;-64
2021/11/15 13:52:10;;;;;;;31.20;25.47;;;;;;;;;;5064608;28;24419;-64
2021/11/15 13:54:42;;;;;;;30.30;24.63;;;;;;;;;;5060628;28;24452;-64
2021/11/15 13:57:07;;;;;;;27.98;24.38;;;;;;;;;;5064599;28;24464;-63
2021/11/15 13:59:33;;;;;;;28.87;25.83;;;;;;;;;;5066407;28;24410;-64
2021/11/15 14:01:58;;;;;;;29.48;26.27;;;;;;;;;;5063846;28;25004;-64
2021/11/15 14:04:23;;;;;;;31.40;25.87;;;;;;;;;;5060793;28;24804;-64
2021/11/15 14:06:48;;;;;;;29.80;26.60;;;;;;;;;;5062569;28;24402;-65
2021/11/15 14:09:14;;;;;;;29.50;26.08;;;;;;;;;;5064376;28;24762;-65
2021/11/15 14:11:39;;;;;;;30.40;27.00;;;;;;;;;;5065554;28;24434;-65
2021/11/15 14:14:04;;;;;;;32.97;27.27;;;;;;;;;;5064165;28;25155;-65